Time;durP1;ratioP1;P1;durP2;ratioP2;P2;SDS_P1;SDS_P2;PMS_P1;PMS_P2;Temp;Humidity;BMP_temperature;BMP_pressure;BME280_temperature;BME280_humidity;BME280_pressure;Samples;Min_cycle;Max_cycle;Signal;HPM_P1;HPM_P2
2022/05/11 00:00:38;;;;;;;6.00;1.50;;;17.20;99.90;;;;;;5090724;28;20749;-90
2022/05/11 00:03:06;;;;;;;4.93;1.40;;;17.20;99.90;;;;;;5092404;28;20511;-93
2022/05/11 00:05:34;;;;;;;7.95;1.80;;;17.30;99.90;;;;;;5092226;28;20422;-89
2022/05/11 00:08:01;;;;;;;5.43;1.42;;;17.30;99.90;;;;;;5090657;28;20395;-91
2022/05/11 00:10:28;;;;;;;5.97;1.70;;;17.30;99.90;;;;;;5090416;28;20895;-90
2022/05/11 00:12:57;;;;;;;6.30;1.80;;;17.00;99.90;;;;;;5091013;28;20412;-90
2022/05/11 00:15:26;;;;;;;5.70;1.70;;;17.10;99.90;;;;;;5089733;28;20395;-89
2022/05/11 00:17:53;;;;;;;5.65;1.73;;;17.10;99.90;;;;;;5079453;28;20811;-90
2022/05/11 00:20:29;;;;;;;5.90;1.85;;;17.10;99.90;;;;;;5095851;28;20451;-90
2022/05/11 00:22:58;;;;;;;7.47;2.00;;;17.10;99.90;;;;;;5077433;28;20376;-89
2022/05/11 00:25:28;;;;;;;7.68;2.08;;;17.00;99.90;;;;;;5093192;28;20383;-88
2022/05/11 00:27:57;;;;;;;7.78;1.90;;;16.90;99.90;;;;;;5091892;28;20379;-88
2022/05/11 00:30:26;;;;;;;8.13;1.90;;;16.90;99.90;;;;;;5092339;28;20945;-87
2022/05/11 00:32:56;;;;;;;9.40;1.90;;;16.90;99.90;;;;;;5094556;28;20392;-89
2022/05/11 00:35:24;;;;;;;6.55;1.90;;;17.00;99.90;;;;;;5092964;28;20495;-89
2022/05/11 00:37:51;;;;;;;5.03;1.95;;;17.00;99.90;;;;;;5092717;28;20437;-89
2022/05/11 00:40:22;;;;;;;7.30;2.13;;;17.00;99.90;;;;;;5092217;28;20431;-90
2022/05/11 00:42:49;;;;;;;6.47;2.28;;;17.00;99.90;;;;;;5092224;28;20377;-90
2022/05/11 00:45:16;;;;;;;7.85;2.50;;;17.00;99.90;;;;;;5092502;28;20477;-90
2022/05/11 00:47:58;;;;;;;8.57;2.42;;;16.90;99.90;;;;;;5090191;28;20943;-87
2022/05/11 00:50:35;;;;;;;8.52;2.00;;;16.90;99.90;;;;;;5091009;28;20376;-90
2022/05/11 00:53:11;;;;;;;7.68;2.22;;;16.90;99.90;;;;;;5090933;28;20364;-88
2022/05/11 00:55:50;;;;;;;6.88;2.03;;;16.90;99.90;;;;;;5089557;28;20404;-89
2022/05/11 00:58:46;;;;;;;8.05;2.30;;;17.00;99.90;;;;;;5091795;28;20388;-89
2022/05/11 01:01:14;;;;;;;10.27;2.80;;;17.10;99.90;;;;;;5091508;28;20391;-88
2022/05/11 01:03:51;;;;;;;9.18;2.67;;;17.20;99.90;;;;;;5092089;28;20379;-90
2022/05/11 01:06:20;;;;;;;10.05;2.40;;;17.20;99.90;;;;;;5091824;28;20774;-89
2022/05/11 01:08:47;;;;;;;7.65;2.40;;;17.20;99.90;;;;;;5091951;28;20468;-89
2022/05/11 01:11:14;;;;;;;9.73;2.20;;;17.20;99.90;;;;;;5092038;28;20384;-89
2022/05/11 01:13:43;;;;;;;7.53;2.17;;;17.20;99.90;;;;;;5093252;28;20493;-90
2022/05/11 01:16:10;;;;;;;9.73;1.90;;;17.30;99.90;;;;;;5090821;28;20881;-89
2022/05/11 01:18:40;;;;;;;8.93;2.47;;;17.20;99.90;;;;;;5092764;28;20445;-90
2022/05/11 01:21:08;;;;;;;9.57;2.20;;;17.20;99.90;;;;;;5092359;28;20380;-89
2022/05/11 01:23:58;;;;;;;11.40;2.50;;;17.10;99.90;;;;;;5092212;28;20391;-90
2022/05/11 01:26:25;;;;;;;11.00;2.65;;;17.10;99.90;;;;;;5090321;28;20381;-89
2022/05/11 01:28:55;;;;;;;10.85;2.50;;;17.10;99.90;;;;;;5088866;28;20407;-89
2022/05/11 01:31:22;;;;;;;10.53;2.90;;;17.10;99.90;;;;;;5089056;28;20783;-88
2022/05/11 01:33:51;;;;;;;13.18;3.03;;;17.00;99.90;;;;;;5089244;28;20766;-89
2022/05/11 01:36:30;;;;;;;11.77;3.00;;;16.90;99.90;;;;;;5090539;28;20427;-90
2022/05/11 01:39:06;;;;;;;13.25;3.47;;;16.90;99.90;;;;;;5088566;28;20416;-89
2022/05/11 01:41:37;;;;;;;10.77;3.53;;;16.90;99.90;;;;;;5088780;28;20429;-88
2022/05/11 01:44:10;;;;;;;13.13;3.83;;;16.90;99.90;;;;;;5088619;28;20384;-89
2022/05/11 01:46:39;;;;;;;9.37;3.57;;;17.00;99.90;;;;;;5089468;28;20438;-88
2022/05/11 01:49:07;;;;;;;10.15;3.47;;;17.00;99.90;;;;;;5088191;28;20384;-89
2022/05/11 01:51:34;;;;;;;11.38;3.90;;;16.90;99.90;;;;;;5088143;28;20697;-90
2022/05/11 01:54:01;;;;;;;10.77;3.85;;;16.90;99.90;;;;;;5090052;28;20372;-89
2022/05/11 01:56:28;;;;;;;8.70;3.00;;;17.00;99.90;;;;;;5089834;28;20392;-89
2022/05/11 01:58:56;;;;;;;9.98;3.28;;;17.00;99.90;;;;;;5089363;28;20722;-89
2022/05/11 02:01:27;;;;;;;8.82;2.90;;;17.00;99.90;;;;;;5090643;28;20828;-89
2022/05/11 02:03:54;;;;;;;8.00;2.63;;;17.10;99.90;;;;;;5090531;28;20368;-90
2022/05/11 02:09:07;;;;;;;8.38;2.38;;;17.20;99.90;;;;;;5090184;28;20905;-88
2022/05/11 02:11:35;;;;;;;10.98;2.80;;;17.20;99.90;;;;;;5089595;28;20467;-88
2022/05/11 02:14:02;;;;;;;12.40;2.40;;;17.10;99.90;;;;;;5089434;28;20860;-88
2022/05/11 02:16:29;;;;;;;9.85;2.60;;;17.10;99.90;;;;;;5092498;28;20419;-87
2022/05/11 02:19:00;;;;;;;11.18;2.90;;;17.00;99.90;;;;;;5096779;28;20435;-87
2022/05/11 02:21:26;;;;;;;12.75;3.20;;;17.00;99.90;;;;;;5098117;28;20381;-87
2022/05/11 02:23:53;;;;;;;12.60;3.50;;;17.00;99.90;;;;;;5090568;28;20372;-89
2022/05/11 02:26:21;;;;;;;13.82;3.47;;;17.00;99.90;;;;;;5090387;28;20463;-90
2022/05/11 02:28:51;;;;;;;12.45;4.18;;;16.90;99.90;;;;;;5090265;28;20403;-90
2022/05/11 02:31:19;;;;;;;11.00;4.10;;;16.90;99.90;;;;;;5088980;28;20412;-90
2022/05/11 02:33:46;;;;;;;15.68;5.50;;;16.90;99.90;;;;;;5091752;28;20479;-91
2022/05/11 02:36:13;;;;;;;14.75;5.75;;;16.80;99.90;;;;;;5089402;28;20479;-92
2022/05/11 02:38:42;;;;;;;14.35;6.57;;;16.80;99.90;;;;;;5091205;28;20364;-93
2022/05/11 02:41:09;;;;;;;19.30;7.10;;;16.80;99.90;;;;;;5089758;28;20380;-92
2022/05/11 02:43:36;;;;;;;12.35;5.50;;;16.80;99.90;;;;;;5090839;28;20369;-89
2022/05/11 02:46:04;;;;;;;11.30;4.80;;;16.80;99.90;;;;;;5089847;28;20432;-90
2022/05/11 02:48:33;;;;;;;14.57;6.03;;;16.80;99.90;;;;;;5087567;28;20429;-90
2022/05/11 02:51:01;;;;;;;17.60;6.80;;;16.90;99.90;;;;;;5090326;28;20375;-90
2022/05/11 02:53:31;;;;;;;12.30;4.07;;;16.90;99.90;;;;;;5088965;28;20380;-90
2022/05/11 02:55:59;;;;;;;9.27;4.40;;;16.90;99.90;;;;;;5087479;28;20410;-89
2022/05/11 02:58:29;;;;;;;11.07;5.00;;;16.90;99.90;;;;;;5088582;28;20557;-89
2022/05/11 03:01:01;;;;;;;10.02;4.70;;;17.00;99.90;;;;;;5087023;28;20368;-90
2022/05/11 03:03:37;;;;;;;12.45;4.43;;;17.00;99.90;;;;;;5089404;28;20387;-90
2022/05/11 03:06:05;;;;;;;11.52;5.20;;;17.00;99.90;;;;;;5092997;28;20356;-91
2022/05/11 03:08:33;;;;;;;11.57;4.60;;;17.00;99.90;;;;;;5091206;28;20467;-89
2022/05/11 03:11:00;;;;;;;12.32;5.32;;;17.00;99.90;;;;;;5093226;28;20386;-90
2022/05/11 03:13:27;;;;;;;11.15;5.35;;;17.10;99.90;;;;;;5091185;28;20408;-90
2022/05/11 03:15:54;;;;;;;12.68;5.57;;;17.00;99.90;;;;;;5092446;28;20396;-89
2022/05/11 03:18:21;;;;;;;13.55;5.97;;;17.10;99.90;;;;;;5091922;28;20435;-89
2022/05/11 03:20:48;;;;;;;13.38;6.82;;;17.10;99.90;;;;;;5091939;28;20421;-89
2022/05/11 03:23:15;;;;;;;17.13;8.40;;;17.20;99.90;;;;;;5091891;28;20372;-89
2022/05/11 03:25:42;;;;;;;16.80;8.48;;;17.20;99.90;;;;;;5092163;28;20376;-89
2022/05/11 03:28:09;;;;;;;21.20;8.73;;;17.30;99.90;;;;;;5092446;28;20369;-88
2022/05/11 03:30:36;;;;;;;16.75;7.93;;;17.30;99.90;;;;;;5091683;28;20486;-89
2022/05/11 03:35:48;;;;;;;13.93;7.72;;;17.30;99.90;;;;;;5092192;28;20415;-88
2022/05/11 03:38:15;;;;;;;15.95;7.88;;;17.30;99.90;;;;;;5092413;28;20415;-89
2022/05/11 03:40:42;;;;;;;12.75;5.90;;;17.40;99.90;;;;;;5092166;28;20387;-90
2022/05/11 03:43:09;;;;;;;12.85;6.30;;;17.30;99.90;;;;;;5092308;28;20368;-87
2022/05/11 03:45:36;;;;;;;11.50;5.75;;;17.40;99.90;;;;;;5091882;28;20429;-88
2022/05/11 03:48:04;;;;;;;13.30;6.20;;;17.40;99.90;;;;;;5090488;28;20730;-88
2022/05/11 03:50:32;;;;;;;7.43;2.70;;;17.40;99.90;;;;;;5091589;28;20373;-87
2022/05/11 03:52:59;;;;;;;10.15;3.67;;;17.30;99.90;;;;;;5090161;28;20380;-87
2022/05/11 03:55:27;;;;;;;9.17;3.17;;;17.20;99.90;;;;;;5091594;28;20427;-87
2022/05/11 03:57:54;;;;;;;7.15;2.70;;;17.30;99.90;;;;;;5091380;28;20372;-88
2022/05/11 04:00:24;;;;;;;6.78;2.58;;;17.30;99.90;;;;;;5091389;28;20438;-89
2022/05/11 04:02:52;;;;;;;9.10;2.88;;;17.30;99.90;;;;;;5091391;28;20404;-88
2022/05/11 04:05:21;;;;;;;8.45;3.00;;;17.30;99.90;;;;;;5091251;28;20364;-87
2022/05/11 04:07:48;;;;;;;8.45;3.25;;;17.30;99.90;;;;;;5090988;28;20366;-88
2022/05/11 04:10:16;;;;;;;8.10;2.80;;;17.30;99.90;;;;;;5089721;28;20372;-88
2022/05/11 04:12:44;;;;;;;7.63;2.75;;;17.30;99.90;;;;;;5090953;28;20388;-89
2022/05/11 04:15:12;;;;;;;9.47;2.83;;;17.30;99.90;;;;;;5090662;28;20384;-87
2022/05/11 04:17:40;;;;;;;9.25;2.83;;;17.30;99.90;;;;;;5090786;28;20824;-87
2022/05/11 04:20:08;;;;;;;11.10;3.30;;;17.30;99.90;;;;;;5091030;28;20475;-87
2022/05/11 04:22:35;;;;;;;9.27;3.05;;;17.30;99.90;;;;;;5089562;28;20376;-87
2022/05/11 04:25:03;;;;;;;6.55;2.40;;;17.20;99.90;;;;;;5090753;28;20463;-87
2022/05/11 04:27:30;;;;;;;6.25;2.20;;;17.20;99.90;;;;;;5089600;28;20391;-87
2022/05/11 04:29:57;;;;;;;5.83;2.10;;;17.20;99.90;;;;;;5090712;28;20756;-86
2022/05/11 04:32:24;;;;;;;5.55;2.10;;;17.20;99.90;;;;;;5090775;28;20421;-87
2022/05/11 04:34:51;;;;;;;6.22;1.80;;;17.10;99.90;;;;;;5089437;28;20368;-87
2022/05/11 04:37:18;;;;;;;4.18;1.63;;;17.10;99.90;;;;;;5090953;28;20443;-89
2022/05/11 04:39:45;;;;;;;6.47;1.90;;;17.00;99.90;;;;;;5089237;28;20376;-88
2022/05/11 04:42:14;;;;;;;6.18;2.00;;;17.00;99.90;;;;;;5090421;28;20372;-87
2022/05/11 04:44:41;;;;;;;6.28;2.63;;;17.00;99.90;;;;;;5090601;28;20394;-88
2022/05/11 04:47:10;;;;;;;8.65;2.53;;;17.00;99.90;;;;;;5091065;28;20400;-87
2022/05/11 04:49:38;;;;;;;7.07;2.42;;;17.10;99.90;;;;;;5091322;28;20701;-86
2022/05/11 04:52:08;;;;;;;8.15;2.90;;;17.10;99.90;;;;;;5091916;28;20389;-87
2022/05/11 04:54:40;;;;;;;7.45;2.65;;;17.10;99.90;;;;;;5090218;28;20388;-87
2022/05/11 04:57:08;;;;;;;6.85;2.75;;;17.10;99.90;;;;;;5090965;28;20400;-87
2022/05/11 04:59:35;;;;;;;8.10;2.40;;;17.10;99.90;;;;;;5090136;28;20378;-87
2022/05/11 05:02:04;;;;;;;6.47;2.47;;;17.00;99.90;;;;;;5088779;28;20384;-87
2022/05/11 05:04:32;;;;;;;6.38;2.50;;;17.00;99.90;;;;;;5090737;28;20724;-89
2022/05/11 05:06:59;;;;;;;10.93;3.17;;;17.00;99.90;;;;;;5092173;28;20377;-89
2022/05/11 05:09:27;;;;;;;6.07;2.15;;;17.00;99.90;;;;;;5088670;28;20384;-88
2022/05/11 05:11:54;;;;;;;5.78;2.00;;;17.00;99.90;;;;;;5090003;28;20377;-90
2022/05/11 05:14:22;;;;;;;7.93;3.00;;;17.00;99.90;;;;;;5089795;28;20456;-89
2022/05/11 05:16:49;;;;;;;8.40;3.30;;;17.00;99.90;;;;;;5091205;28;20404;-89
2022/05/11 05:19:16;;;;;;;11.63;3.40;;;17.00;99.90;;;;;;5090075;28;20441;-89
2022/05/11 05:21:43;;;;;;;9.68;3.28;;;17.00;99.90;;;;;;5088767;28;20706;-90
2022/05/11 05:24:10;;;;;;;10.82;3.58;;;17.10;99.90;;;;;;5089793;28;20372;-90
2022/05/11 05:26:37;;;;;;;9.90;3.78;;;17.10;99.90;;;;;;5089175;28;20860;-89
2022/05/11 05:31:49;;;;;;;8.75;3.70;;;17.00;99.90;;;;;;5089476;28;20441;-89
2022/05/11 05:34:16;;;;;;;11.30;4.20;;;17.00;99.90;;;;;;5089513;28;20728;-91
2022/05/11 05:36:43;;;;;;;9.18;4.13;;;16.90;99.90;;;;;;5088163;28;20392;-90
2022/05/11 05:39:10;;;;;;;9.88;4.50;;;16.80;99.90;;;;;;5088026;28;20456;-90
2022/05/11 05:41:37;;;;;;;10.77;4.38;;;16.80;99.90;;;;;;5089978;28;20392;-89
2022/05/11 05:44:06;;;;;;;10.02;4.10;;;16.70;99.90;;;;;;5089205;28;20381;-86
2022/05/11 05:46:36;;;;;;;10.02;4.63;;;16.80;99.90;;;;;;5089859;28;20840;-88
2022/05/11 05:49:04;;;;;;;13.05;5.00;;;16.80;99.90;;;;;;5089470;28;20425;-92
2022/05/11 05:51:31;;;;;;;12.45;4.72;;;16.80;99.90;;;;;;5089483;28;20456;-93
2022/05/11 05:53:58;;;;;;;9.88;4.68;;;16.80;99.90;;;;;;5089700;28;20369;-92
2022/05/11 05:56:28;;;;;;;10.75;4.47;;;16.80;99.90;;;;;;5090714;28;20475;-91
2022/05/11 05:58:58;;;;;;;9.73;3.53;;;16.80;99.90;;;;;;5094021;28;20406;-85
2022/05/11 06:01:27;;;;;;;12.25;4.95;;;16.80;99.90;;;;;;5089154;28;20408;-90
2022/05/11 06:03:54;;;;;;;10.95;5.55;;;16.80;99.90;;;;;;5088227;28;20372;-88
2022/05/11 06:06:21;;;;;;;15.77;7.20;;;16.80;99.90;;;;;;5088756;28;20460;-88
2022/05/11 06:08:48;;;;;;;12.07;8.50;;;16.70;99.90;;;;;;5087638;28;20368;-88
2022/05/11 06:11:15;;;;;;;15.93;7.60;;;16.70;99.90;;;;;;5088989;28;20437;-89
2022/05/11 06:13:45;;;;;;;15.60;8.40;;;16.70;99.90;;;;;;5087484;28;20774;-88
2022/05/11 06:16:14;;;;;;;13.90;8.48;;;16.60;99.90;;;;;;5087485;28;20404;-87
2022/05/11 06:18:43;;;;;;;14.20;9.40;;;16.60;99.90;;;;;;5088888;28;20864;-87
2022/05/11 06:21:12;;;;;;;14.95;9.00;;;16.60;99.90;;;;;;5089047;28;20977;-85
2022/05/11 06:23:39;;;;;;;13.57;9.30;;;16.60;99.90;;;;;;5088916;28;20451;-85
2022/05/11 06:26:06;;;;;;;17.75;10.02;;;16.60;99.90;;;;;;5087484;28;20468;-92
2022/05/11 06:28:36;;;;;;;14.20;10.02;;;16.60;99.90;;;;;;5088766;28;20373;-87
2022/05/11 06:31:04;;;;;;;15.45;9.35;;;16.50;99.90;;;;;;5088855;28;20392;-87
2022/05/11 06:33:33;;;;;;;16.27;9.60;;;16.50;99.90;;;;;;5089523;28;20827;-89
2022/05/11 06:36:05;;;;;;;14.93;9.35;;;16.50;99.90;;;;;;5089576;28;20404;-85
2022/05/11 06:38:32;;;;;;;13.80;9.45;;;16.40;99.90;;;;;;5093283;28;20368;-86
2022/05/11 06:41:06;;;;;;;16.25;9.25;;;16.50;99.90;;;;;;5095268;28;20386;-87
2022/05/11 06:43:33;;;;;;;15.65;9.20;;;16.40;99.90;;;;;;5095557;28;20371;-89
2022/05/11 06:46:00;;;;;;;13.98;8.70;;;16.50;99.90;;;;;;5095389;28;20471;-85
2022/05/11 06:48:27;;;;;;;13.63;8.32;;;16.50;99.90;;;;;;5095196;28;20379;-85
2022/05/11 06:50:54;;;;;;;16.40;9.27;;;16.50;99.90;;;;;;5094554;28;20438;-82
2022/05/11 06:53:21;;;;;;;14.83;9.40;;;16.50;99.90;;;;;;5095363;28;20376;-83
2022/05/11 07:01:18;;;;;;;16.83;11.23;;;16.50;99.90;;;;;;5095799;28;20371;-80
2022/05/11 07:03:45;;;;;;;17.65;10.85;;;16.40;99.90;;;;;;5095270;28;20376;-81
2022/05/11 07:06:12;;;;;;;22.13;13.15;;;16.40;99.90;;;;;;5095829;28;20375;-89
2022/05/11 07:08:41;;;;;;;30.77;21.38;;;16.30;99.90;;;;;;5095006;28;20823;-83
2022/05/11 07:13:57;;;;;;;37.10;29.10;;;16.30;99.90;;;;;;5095858;28;20418;-81
2022/05/11 07:16:25;;;;;;;24.55;16.83;;;16.30;99.90;;;;;;5094858;28;20399;-84
2022/05/11 07:18:53;;;;;;;20.93;13.87;;;16.30;99.90;;;;;;5094860;28;20368;-87
2022/05/11 07:21:20;;;;;;;24.75;15.13;;;16.30;99.90;;;;;;5094938;28;20720;-83
2022/05/11 07:23:47;;;;;;;22.70;12.93;;;16.30;99.90;;;;;;5095063;28;20703;-82
2022/05/11 07:26:14;;;;;;;19.67;11.88;;;16.20;99.90;;;;;;5094941;28;20748;-80
2022/05/11 07:28:41;;;;;;;21.75;14.50;;;16.20;99.90;;;;;;5095014;28;20372;-81
2022/05/11 07:31:08;;;;;;;22.25;14.02;;;16.20;99.90;;;;;;5094472;28;20929;-82
2022/05/11 07:33:35;;;;;;;20.48;10.80;;;16.20;99.90;;;;;;5094651;28;20375;-80
2022/05/11 07:36:05;;;;;;;22.27;12.07;;;16.20;99.90;;;;;;5094655;28;20729;-81
2022/05/11 07:38:37;;;;;;;25.05;15.77;;;16.20;99.90;;;;;;5095228;28;20859;-83
2022/05/11 07:41:05;;;;;;;19.33;13.98;;;16.20;99.90;;;;;;5094929;28;20759;-82
2022/05/11 07:43:33;;;;;;;22.30;11.87;;;16.20;99.90;;;;;;5095127;28;20510;-81
2022/05/11 07:46:00;;;;;;;18.88;10.68;;;16.10;99.90;;;;;;5094665;28;20712;-84
2022/05/11 07:48:27;;;;;;;18.77;9.90;;;16.20;99.90;;;;;;5094194;28;20368;-82
2022/05/11 07:50:55;;;;;;;16.10;9.27;;;16.20;99.90;;;;;;5090916;28;20460;-81
2022/05/11 07:53:22;;;;;;;20.27;10.50;;;16.20;99.90;;;;;;5091440;28;20379;-82
2022/05/11 07:59:52;;;;;;;19.27;10.65;;;16.30;99.90;;;;;;5091178;28;20922;-82
2022/05/11 08:01:21;;;;;;;23.55;12.02;;;16.30;99.90;;;;;;5091889;28;20390;-80
2022/05/11 08:03:48;;;;;;;21.63;11.85;;;16.30;99.90;;;;;;5091357;28;20387;-89
2022/05/11 08:06:19;;;;;;;30.48;19.10;;;16.20;99.90;;;;;;5092052;28;20440;-84
2022/05/11 08:08:46;;;;;;;31.75;20.25;;;16.20;99.90;;;;;;5091528;28;20376;-88
2022/05/11 08:11:14;;;;;;;24.98;16.15;;;16.10;99.90;;;;;;5091041;28;20369;-82
2022/05/11 08:13:41;;;;;;;23.55;14.75;;;16.10;99.90;;;;;;5091197;28;20372;-88
2022/05/11 08:16:08;;;;;;;24.48;11.75;;;16.10;99.90;;;;;;5091683;28;20449;-84
2022/05/11 08:18:40;;;;;;;20.35;12.15;;;16.10;99.90;;;;;;5092961;28;20373;-82
2022/05/11 08:21:09;;;;;;;21.23;11.52;;;16.70;99.90;;;;;;5092199;28;20404;-92
2022/05/11 08:23:36;;;;;;;21.20;12.70;;;16.10;99.90;;;;;;5091238;28;20374;-84
2022/05/11 08:26:04;;;;;;;20.40;11.50;;;16.10;99.90;;;;;;5090943;28;20740;-86
2022/05/11 08:28:31;;;;;;;18.17;10.85;;;16.10;99.90;;;;;;5090976;28;20383;-88
2022/05/11 08:33:43;;;;;;;20.75;12.85;;;16.10;99.90;;;;;;5091002;28;20414;-83
2022/05/11 08:36:20;;;;;;;20.40;14.95;;;16.10;99.90;;;;;;5091254;28;20396;-84
2022/05/11 08:38:52;;;;;;;24.17;14.85;;;16.10;99.90;;;;;;5090973;28;20426;-88
2022/05/11 08:41:29;;;;;;;24.40;16.20;;;16.10;99.90;;;;;;5092098;28;20454;-84
2022/05/11 08:44:26;;;;;;;24.75;15.90;;;16.00;99.90;;;;;;5095719;28;20391;-83
2022/05/11 08:47:16;;;;;;;22.13;13.77;;;16.00;99.90;;;;;;5092641;28;20384;-89
2022/05/11 08:50:10;;;;;;;20.98;13.70;;;16.10;99.90;;;;;;5092040;28;20374;-77
2022/05/11 08:52:56;;;;;;;21.95;13.65;;;16.10;99.90;;;;;;5090983;28;20455;-93
2022/05/11 08:55:31;;;;;;;24.27;16.45;;;16.10;99.90;;;;;;5091518;28;20407;-87
2022/05/11 08:58:04;;;;;;;23.85;15.70;;;16.10;99.90;;;;;;5090426;28;20387;-86
2022/05/11 09:00:31;;;;;;;24.13;17.13;;;16.00;99.90;;;;;;5090337;28;20417;-82
2022/05/11 09:03:05;;;;;;;26.30;17.40;;;16.00;99.90;;;;;;5089820;28;20387;-78
2022/05/11 09:05:32;;;;;;;26.98;18.85;;;16.00;99.90;;;;;;5090205;28;20372;-79
2022/05/11 09:07:59;;;;;;;24.33;18.05;;;16.00;99.90;;;;;;5090128;28;20376;-80
2022/05/11 09:10:36;;;;;;;24.00;18.42;;;16.00;99.90;;;;;;5089938;28;20742;-82
2022/05/11 09:13:07;;;;;;;22.45;16.52;;;16.00;99.90;;;;;;5089956;28;20364;-79
2022/05/11 09:16:04;;;;;;;26.92;19.77;;;16.00;99.90;;;;;;5089843;28;20856;-78
2022/05/11 09:18:31;;;;;;;28.05;22.52;;;16.00;99.90;;;;;;5047682;28;20747;-78
2022/05/11 09:21:01;;;;;;;25.90;21.35;;;16.00;99.90;;;;;;5047386;28;20368;-82
2022/05/11 09:23:36;;;;;;;26.77;21.15;;;16.00;99.90;;;;;;5047671;28;20380;-87
2022/05/11 09:26:09;;;;;;;25.50;18.43;;;16.00;99.90;;;;;;5048629;28;20425;-79
2022/05/11 09:28:42;;;;;;;21.20;16.02;;;16.00;99.90;;;;;;5047485;28;20495;-79
2022/05/11 09:31:19;;;;;;;19.05;15.05;;;16.00;99.90;;;;;;5047455;28;20754;-83
2022/05/11 09:34:03;;;;;;;17.63;14.70;;;15.90;99.90;;;;;;5047677;28;20994;-84
2022/05/11 09:36:58;;;;;;;25.25;17.70;;;16.00;99.90;;;;;;5047877;28;20407;-81
2022/05/11 09:39:27;;;;;;;26.75;18.90;;;16.00;99.90;;;;;;5046803;28;20412;-82
2022/05/11 09:42:01;;;;;;;119.72;101.63;;;16.00;99.90;;;;;;5048123;28;20470;-82
2022/05/11 09:44:49;;;;;;;127.10;101.15;;;15.90;99.90;;;;;;5053484;28;20360;-79
2022/05/11 09:47:33;;;;;;;48.92;36.65;;;15.90;99.90;;;;;;5036319;28;20383;-78
2022/05/11 09:50:22;;;;;;;64.87;57.33;;;15.80;99.90;;;;;;5052291;28;20376;-80
2022/05/11 09:52:49;;;;;;;43.92;34.15;;;15.80;99.90;;;;;;5049199;28;20472;-81
2022/05/11 09:55:31;;;;;;;32.83;27.52;;;15.80;99.90;;;;;;5075524;28;20369;-78
2022/05/11 09:58:08;;;;;;;28.55;19.60;;;15.80;99.90;;;;;;5092566;28;20369;-78
2022/05/11 10:00:43;;;;;;;22.77;15.30;;;15.80;99.90;;;;;;5089120;28;20857;-78
2022/05/11 10:03:14;;;;;;;19.27;14.32;;;15.80;99.90;;;;;;5091348;28;20383;-83
2022/05/11 10:05:50;;;;;;;21.87;14.83;;;15.80;99.90;;;;;;5090581;28;20418;-79
2022/05/11 10:08:31;;;;;;;23.25;14.38;;;15.90;99.90;;;;;;5090491;28;20506;-77
2022/05/11 10:11:01;;;;;;;22.00;14.82;;;15.90;99.90;;;;;;5089505;28;20383;-76
2022/05/11 10:13:40;;;;;;;28.10;15.88;;;15.90;99.90;;;;;;5089475;28;20414;-83
2022/05/11 10:22:36;;;;;;;22.27;14.23;;;15.80;99.90;;;;;;5089475;28;20383;-84
2022/05/11 10:25:06;;;;;;;23.90;14.27;;;15.80;99.90;;;;;;5088987;28;20426;-87
2022/05/11 10:27:53;;;;;;;22.05;13.73;;;15.80;99.90;;;;;;5089114;28;20419;-78
2022/05/11 10:30:28;;;;;;;24.33;13.93;;;15.80;99.90;;;;;;5088994;28;20872;-78
2022/05/11 10:33:19;;;;;;;23.75;14.18;;;15.80;99.90;;;;;;5088859;28;20373;-87
2022/05/11 10:35:52;;;;;;;23.03;13.80;;;15.80;99.90;;;;;;5088759;28;20748;-85
2022/05/11 10:38:51;;;;;;;20.88;12.50;;;15.80;99.90;;;;;;5088519;28;20373;-87
2022/05/11 10:41:48;;;;;;;21.40;11.65;;;15.70;99.90;;;;;;5089149;28;20705;-86
2022/05/11 10:44:37;;;;;;;26.55;13.57;;;15.70;99.90;;;;;;5046410;28;20384;-85
2022/05/11 10:47:16;;;;;;;19.95;12.23;;;15.70;99.90;;;;;;5046786;28;20387;-86
2022/05/11 10:50:01;;;;;;;25.27;14.10;;;15.80;99.90;;;;;;5046428;28;20376;-77
2022/05/11 10:52:37;;;;;;;26.05;14.93;;;15.80;99.90;;;;;;5045993;28;20376;-87
2022/05/11 10:55:32;;;;;;;19.80;13.52;;;15.80;99.90;;;;;;5029413;28;20399;-86
2022/05/11 10:58:26;;;;;;;18.10;11.30;;;15.80;99.90;;;;;;5046022;28;20414;-83
2022/05/11 11:01:00;;;;;;;15.87;10.10;;;15.80;99.90;;;;;;5046127;28;20422;-77
2022/05/11 11:03:34;;;;;;;16.35;10.10;;;15.80;99.90;;;;;;5046039;28;20437;-79
2022/05/11 11:09:17;;;;;;;21.33;10.57;;;15.70;99.90;;;;;;5046007;28;20530;-82
2022/05/11 11:11:44;;;;;;;23.43;12.17;;;15.80;99.90;;;;;;5046030;28;20372;-84
2022/05/11 11:14:14;;;;;;;23.58;12.90;;;15.80;99.90;;;;;;5046359;28;20364;-81
2022/05/11 11:16:42;;;;;;;22.13;12.32;;;15.80;99.90;;;;;;5045886;28;20434;-77
2022/05/11 11:19:11;;;;;;;20.05;11.75;;;15.70;99.90;;;;;;5045852;28;20376;-85
2022/05/11 11:21:43;;;;;;;20.27;11.05;;;15.80;99.90;;;;;;5075463;28;20372;-77
2022/05/11 11:24:22;;;;;;;20.30;11.45;;;15.80;99.90;;;;;;5090616;28;20368;-79
2022/05/11 11:26:49;;;;;;;28.55;14.18;;;15.80;99.90;;;;;;5091877;28;20368;-78
2022/05/11 11:29:20;;;;;;;28.88;14.70;;;15.80;99.90;;;;;;5092276;28;20866;-78
2022/05/11 11:31:59;;;;;;;28.70;15.68;;;15.80;99.90;;;;;;5091733;28;20380;-81
2022/05/11 11:34:37;;;;;;;39.15;15.90;;;15.80;99.90;;;;;;5091701;28;20373;-81
2022/05/11 11:37:26;;;;;;;30.52;13.63;;;15.70;99.90;;;;;;5091462;28;20475;-78
2022/05/11 11:40:12;;;;;;;26.42;14.50;;;15.80;99.90;;;;;;5092195;28;20376;-84
2022/05/11 11:42:42;;;;;;;24.40;15.60;;;15.70;99.90;;;;;;5049306;28;20372;-80
2022/05/11 11:45:31;;;;;;;27.80;16.83;;;15.70;99.90;;;;;;5049351;28;20375;-84
2022/05/11 11:48:04;;;;;;;25.50;16.33;;;15.70;99.90;;;;;;5049737;28;20364;-81
2022/05/11 11:51:01;;;;;;;28.58;16.33;;;15.70;99.90;;;;;;5049614;28;20414;-78
2022/05/11 11:53:42;;;;;;;28.55;16.85;;;15.70;99.90;;;;;;5037150;28;20438;-85
2022/05/11 11:56:25;;;;;;;30.40;18.02;;;15.70;99.90;;;;;;5048836;28;20906;-78
2022/05/11 11:59:28;;;;;;;29.75;18.80;;;15.70;99.90;;;;;;5032185;28;20376;-78
2022/05/11 12:02:12;;;;;;;32.05;17.77;;;15.70;99.90;;;;;;4989622;28;20718;-78
2022/05/11 12:04:44;;;;;;;31.25;16.77;;;15.70;99.90;;;;;;4989847;28;20377;-81
2022/05/11 12:15:58;;;;;;;26.52;15.52;;;15.60;99.90;;;;;;4989943;28;20920;-78
2022/05/11 12:18:34;;;;;;;31.70;17.92;;;15.60;99.90;;;;;;4989814;28;20373;-78
2022/05/11 12:21:05;;;;;;;41.25;19.58;;;15.60;99.90;;;;;;5008970;28;20508;-80
2022/05/11 12:23:36;;;;;;;32.42;20.00;;;15.60;99.90;;;;;;5009065;28;20739;-78
2022/05/11 12:26:11;;;;;;;26.35;17.10;;;15.70;99.90;;;;;;5009132;28;20383;-86
2022/05/11 12:28:42;;;;;;;28.33;16.63;;;15.60;99.90;;;;;;5009097;28;20390;-84
2022/05/11 12:31:21;;;;;;;22.90;15.75;;;15.70;99.90;;;;;;5008658;28;21019;-85
2022/05/11 12:33:55;;;;;;;26.02;17.38;;;15.70;99.90;;;;;;5008877;28;20458;-86
2022/05/11 12:36:42;;;;;;;47.03;22.85;;;15.70;99.90;;;;;;5060741;28;20872;-79
2022/05/11 12:39:09;;;;;;;48.65;23.55;;;15.70;99.90;;;;;;5091107;28;20716;-84
2022/05/11 12:41:36;;;;;;;37.70;25.73;;;15.70;99.90;;;;;;5090500;28;20383;-86
2022/05/11 12:44:12;;;;;;;38.10;25.77;;;15.70;99.90;;;;;;5090371;28;20890;-80
2022/05/11 12:46:42;;;;;;;52.67;33.20;;;15.70;99.90;;;;;;5088708;28;20380;-83
2022/05/11 12:49:14;;;;;;;37.55;25.35;;;15.70;99.90;;;;;;5090450;28;20360;-82
2022/05/11 12:52:05;;;;;;;42.88;28.98;;;15.80;99.90;;;;;;5090174;28;20376;-81
2022/05/11 12:54:32;;;;;;;50.70;31.25;;;15.70;99.90;;;;;;5090175;28;20368;-80
2022/05/11 12:57:02;;;;;;;48.30;30.08;;;15.70;99.90;;;;;;5089982;28;20392;-83
2022/05/11 12:59:33;;;;;;;52.17;31.10;;;15.70;99.90;;;;;;5090727;28;20360;-85
2022/05/11 13:02:25;;;;;;;52.83;29.30;;;15.70;99.90;;;;;;5089996;28;20773;-83
2022/05/11 13:04:55;;;;;;;52.60;29.45;;;15.70;99.90;;;;;;5090515;28;20368;-81
2022/05/11 13:08:00;;;;;;;49.72;27.30;;;15.70;99.90;;;;;;5090270;28;20447;-79
2022/05/11 13:10:36;;;;;;;47.95;27.80;;;15.70;99.90;;;;;;5047572;28;20478;-79
2022/05/11 13:13:07;;;;;;;63.13;28.13;;;15.60;99.90;;;;;;5047534;28;20419;-78
2022/05/11 13:15:36;;;;;;;39.95;24.70;;;15.60;99.90;;;;;;5047696;28;20454;-78
2022/05/11 13:18:06;;;;;;;43.10;25.55;;;15.70;99.90;;;;;;5047625;28;20844;-82
2022/05/11 13:20:44;;;;;;;66.07;28.10;;;15.70;99.90;;;;;;5047379;28;20716;-79
2022/05/11 13:23:33;;;;;;;34.77;23.67;;;15.70;99.90;;;;;;5047382;28;20737;-80
2022/05/11 13:26:06;;;;;;;45.30;26.13;;;15.70;99.90;;;;;;5047245;28;20364;-80
2022/05/11 13:29:01;;;;;;;34.77;22.33;;;15.70;99.90;;;;;;5047343;28;20460;-79
2022/05/11 13:31:36;;;;;;;38.75;22.67;;;15.70;99.90;;;;;;5047039;28;20823;-82
2022/05/11 13:34:04;;;;;;;63.13;25.60;;;15.70;99.90;;;;;;5047433;28;20463;-88
2022/05/11 13:36:44;;;;;;;54.05;27.85;;;15.70;99.90;;;;;;5047066;28;20400;-87
2022/05/11 13:39:14;;;;;;;45.72;26.20;;;15.60;99.90;;;;;;5047057;28;20447;-88